createdAt,value
2022-09-28T00:03:15.496Z,96303.09
2022-09-28T00:08:18.194Z,96263.28
2022-09-28T00:13:21.064Z,96307.56
2022-09-28T00:18:23.978Z,96293.59
2022-09-28T00:23:26.909Z,96284.88
2022-09-28T00:28:29.927Z,96301.28
2022-09-28T00:33:32.816Z,96237.97
2022-09-28T00:38:35.734Z,96282.88
2022-09-28T00:43:38.703Z,96262.78
2022-09-28T00:48:52.028Z,96260.31
2022-09-28T00:53:57.078Z,96248.97
2022-09-28T00:59:00.904Z,96248.34
2022-09-28T01:04:05.767Z,96247.41
2022-09-28T01:09:11.493Z,96242.88
2022-09-28T01:14:16.617Z,96250.44
2022-09-28T01:19:32.600Z,96275.59
2022-09-28T01:24:41.975Z,96271.75
2022-09-28T01:29:47.499Z,96258.47
2022-09-28T01:35:10.006Z,96261.00
2022-09-28T01:40:15.691Z,96224.78
2022-09-28T01:45:27.579Z,96295.28
2022-09-28T01:50:36.520Z,96247.81
2022-09-28T01:55:55.951Z,96274.22
2022-09-28T02:01:04.419Z,96295.72
2022-09-28T02:06:15.294Z,96273.44
2022-09-28T02:11:20.410Z,96235.41
2022-09-28T02:16:35.592Z,96282.16
2022-09-28T02:21:54.994Z,96286.41
2022-09-28T02:27:02.334Z,96145.84
2022-09-28T02:32:05.329Z,96232.13
2022-09-28T02:37:07.971Z,96112.94
2022-09-28T02:42:26.585Z,96280.16
2022-09-28T02:47:35.164Z,96239.84
2022-09-28T02:53:05.570Z,96291.16
2022-09-28T02:58:25.625Z,96281.63
2022-09-28T03:03:48.228Z,96290.34
2022-09-28T03:09:15.060Z,96228.06
2022-09-28T03:14:18.231Z,96225.47
2022-09-28T03:24:36.373Z,96197.47
2022-09-28T03:29:40.367Z,96226.31
2022-09-28T03:34:43.262Z,96104.50
2022-09-28T03:39:45.954Z,96237.63
2022-09-28T03:44:48.763Z,96207.34
2022-09-28T03:49:51.718Z,96247.28
2022-09-28T03:54:54.418Z,96105.34
2022-09-28T03:59:57.067Z,96093.34
2022-09-28T04:04:59.748Z,96167.16
2022-09-28T04:10:02.474Z,96249.94
2022-09-28T04:15:05.424Z,96143.56
2022-09-28T04:20:08.492Z,96096.94
2022-09-28T04:25:11.376Z,96272.00
2022-09-28T04:30:15.734Z,96126.63
2022-09-28T04:35:19.482Z,96267.03
2022-09-28T04:40:22.217Z,96137.53
2022-09-28T04:45:27.094Z,96235.25
2022-09-28T04:50:29.776Z,96272.97
2022-09-28T04:55:33.473Z,96121.75
2022-09-28T05:00:36.754Z,96238.63
2022-09-28T05:05:45.591Z,96268.75
2022-09-28T05:10:48.326Z,96253.97
2022-09-28T05:15:57.564Z,96298.09
2022-09-28T05:21:02.824Z,96288.34
2022-09-28T05:26:05.968Z,96289.81
2022-09-28T05:31:08.891Z,96124.25
2022-09-28T05:36:12.261Z,96291.72
2022-09-28T05:41:14.974Z,96295.78
2022-09-28T05:46:21.024Z,96333.66
2022-09-28T05:51:25.497Z,96169.00
2022-09-28T05:56:31.415Z,96276.97
2022-09-28T06:01:34.543Z,96143.75
2022-09-28T06:06:37.604Z,96277.09
2022-09-28T06:11:40.279Z,96210.03
2022-09-28T06:16:44.062Z,96234.56
2022-09-28T06:21:48.478Z,96269.66
2022-09-28T06:26:51.490Z,96243.44
2022-09-28T06:31:54.204Z,96167.19
2022-09-28T06:36:57.099Z,96162.75
2022-09-28T06:42:05.307Z,96252.16
2022-09-28T06:47:08.618Z,96207.81
2022-09-28T06:52:12.977Z,96116.78
2022-09-28T06:57:16.633Z,96264.91
2022-09-28T07:02:19.394Z,96129.41
2022-09-28T07:07:22.376Z,96203.38
2022-09-28T07:17:34.189Z,96267.72
2022-09-28T07:22:43.423Z,96233.00
2022-09-28T07:27:48.002Z,96252.44
2022-09-28T07:32:50.762Z,96250.66
2022-09-28T07:38:01.262Z,96254.19
2022-09-28T07:43:07.328Z,96235.84
2022-09-28T07:53:18.909Z,96239.41
2022-09-28T07:58:22.021Z,96247.81
2022-09-28T08:03:24.695Z,96255.75
2022-09-28T08:08:27.845Z,96272.59
2022-09-28T08:13:31.980Z,96264.16
2022-09-28T08:18:35.935Z,96269.94
2022-09-28T08:23:39.781Z,96262.66
2022-09-28T08:28:44.058Z,96250.75
2022-09-28T08:33:46.819Z,96258.00
2022-09-28T08:38:50.056Z,96248.72
2022-09-28T08:44:01.051Z,96237.41
2022-09-28T08:49:24.888Z,96231.63
2022-09-28T08:54:42.491Z,96229.50
2022-09-28T08:59:55.475Z,96227.47
2022-09-28T09:04:59.461Z,96211.75
2022-09-28T09:10:14.365Z,96232.63
2022-09-28T09:15:18.362Z,96232.25
2022-09-28T09:20:27.384Z,96237.03
2022-09-28T09:25:41.582Z,96239.97
2022-09-28T09:31:09.979Z,96223.94
2022-09-28T09:36:26.966Z,96234.34
2022-09-28T09:42:02.238Z,96227.19
2022-09-28T09:47:14.359Z,96214.13
2022-09-28T09:52:27.924Z,96206.81
2022-09-28T09:57:41.141Z,96216.00
2022-09-28T10:02:48.165Z,96225.44
2022-09-28T10:07:59.704Z,96218.78
2022-09-28T10:13:02.761Z,96210.50
2022-09-28T10:18:11.997Z,96210.00
2022-09-28T10:23:30.605Z,96212.63
2022-09-28T10:28:51.721Z,96202.13
2022-09-28T10:33:54.546Z,96200.56
2022-09-28T10:38:58.749Z,96197.47
2022-09-28T10:44:09.650Z,96199.53
2022-09-28T10:49:19.566Z,96196.78
2022-09-28T10:54:30.653Z,96180.00
2022-09-28T10:59:39.494Z,96171.03
2022-09-28T11:04:44.501Z,96175.13
2022-09-28T11:09:51.006Z,96170.63
2022-09-28T11:15:06.938Z,96168.47
2022-09-28T11:20:27.857Z,96167.63
2022-09-28T11:25:32.205Z,96173.78
2022-09-28T11:30:52.768Z,96178.41
2022-09-28T11:36:15.235Z,96165.25
2022-09-28T11:41:45.575Z,96176.78
2022-09-28T11:47:11.547Z,96179.03
2022-09-28T11:52:31.802Z,96173.78
2022-09-28T11:57:41.667Z,96156.50
2022-09-28T12:03:01.487Z,96163.69
2022-09-28T12:08:26.470Z,96141.97
2022-09-28T12:13:36.123Z,96167.47
2022-09-28T12:18:44.675Z,96156.94
2022-09-28T12:23:49.547Z,96120.78
2022-09-28T12:28:58.205Z,96141.88
2022-09-28T12:34:02.963Z,96144.75
2022-09-28T12:39:21.633Z,96134.59
2022-09-28T12:44:42.645Z,96140.03
2022-09-28T12:55:57.161Z,96141.28
2022-09-28T13:01:24.860Z,96153.03
2022-09-28T13:06:36.361Z,96150.38
2022-09-28T13:11:55.301Z,96143.03
2022-09-28T13:17:10.078Z,96153.72
2022-09-28T13:22:50.762Z,96139.25
2022-09-28T13:27:59.620Z,96150.84
2022-09-28T13:33:06.724Z,96141.13
2022-09-28T13:38:18.671Z,96132.81
2022-09-28T13:43:49.661Z,96117.28
2022-09-28T13:49:07.692Z,96111.06
2022-09-28T13:54:22.558Z,96112.06
2022-09-28T13:59:28.848Z,96079.47
2022-09-28T14:04:50.430Z,96097.63
2022-09-28T14:10:18.952Z,96109.53
2022-09-28T14:15:37.665Z,96110.03
2022-09-28T14:20:55.917Z,96109.41
2022-09-28T14:26:17.306Z,96109.06
2022-09-28T14:31:29.384Z,96081.28
2022-09-28T14:37:00.398Z,96107.81
2022-09-28T14:42:13.859Z,96096.25
2022-09-28T14:47:43.704Z,96104.41
2022-09-28T14:52:54.841Z,96107.84
2022-09-28T14:57:59.980Z,96102.09
2022-09-28T15:03:07.806Z,96108.81
2022-09-28T15:08:13.946Z,96106.50
2022-09-28T15:13:22.230Z,96108.38
2022-09-28T15:19:02.292Z,96115.66
2022-09-28T15:24:26.881Z,96123.03
2022-09-28T15:29:32.492Z,96124.28
2022-09-28T15:34:52.260Z,96117.81
2022-09-28T15:39:57.196Z,96097.16
2022-09-28T15:45:14.909Z,96100.38
2022-09-28T15:50:23.845Z,96064.78
2022-09-28T15:55:35.472Z,96097.59
2022-09-28T16:00:39.073Z,96124.69
2022-09-28T16:05:47.705Z,96117.34
2022-09-28T16:11:21.217Z,96111.19
2022-09-28T16:16:43.301Z,96120.22
2022-09-28T16:21:48.935Z,96124.16
2022-09-28T16:26:59.933Z,96136.41
2022-09-28T16:32:25.647Z,96160.94
2022-09-28T16:37:32.706Z,96168.94
2022-09-28T16:42:36.998Z,96183.19
2022-09-28T16:47:41.397Z,96188.16
2022-09-28T16:53:02.862Z,96196.34
2022-09-28T16:58:06.415Z,96188.16
2022-09-28T17:03:15.141Z,96174.69
2022-09-28T17:08:21.007Z,96179.47
2022-09-28T17:13:34.309Z,96174.97
2022-09-28T17:18:41.022Z,96170.88
2022-09-28T17:23:45.347Z,96162.88
2022-09-28T17:28:48.274Z,96150.47
2022-09-28T17:33:51.188Z,96152.00
2022-09-28T17:38:53.917Z,96130.63
2022-09-28T17:43:56.958Z,96145.53
2022-09-28T17:49:01.896Z,96115.19
2022-09-28T17:54:07.409Z,96110.56
2022-09-28T17:59:19.423Z,96056.53
2022-09-28T18:04:47.571Z,96106.88
2022-09-28T18:09:44.929Z,96104.03
2022-09-28T18:14:47.975Z,96083.69
2022-09-28T18:19:51.537Z,96079.47
2022-09-28T18:24:54.227Z,96118.41
2022-09-28T18:29:57.424Z,96075.09
2022-09-28T18:35:00.102Z,96088.88
2022-09-28T18:40:06.140Z,95987.78
2022-09-28T18:45:14.035Z,96082.59
2022-09-28T18:50:17.238Z,95908.63
